Terminal Aerodrome Forecast
Issued by NWS Billings, MT

Home | Current Version | Previous Version | Text Only | Print | Product List | Glossary On
Versions: 1 2 3 4 5 6 7 8 9 10 11 12 13
000
FTUS45 KBYZ 280521
TAFMLS
TAF
KMLS 280521Z 2806/2906 16007KT P6SM SCT120
     FM281300 27007KT P6SM SCT120
     FM281800 33012KT P6SM SCT150
     FM290300 01008KT P6SM SCT120 BKN150=

USA.gov is the U.S. government's official web portal to all federal, state and local government web resources and services.